Time;durP1;ratioP1;P1;durP2;ratioP2;P2;SDS_P1;SDS_P2;PMS_P1;PMS_P2;Temp;Humidity;BMP_temperature;BMP_pressure;BME280_temperature;BME280_humidity;BME280_pressure;Samples;Min_cycle;Max_cycle;Signal;HPM_P1;HPM_P2
2022/04/19 00:00:06;;;;;;;18.27;12.95;;;;;;;11.19;67.54;101540.88;5013798;28;20018;-71
2022/04/19 00:02:31;;;;;;;17.75;12.77;;;;;;;11.07;67.36;101539.72;5005654;28;20132;-72
2022/04/19 00:04:59;;;;;;;19.00;13.45;;;;;;;11.04;68.44;101537.00;4994888;28;20057;-71
2022/04/19 00:07:25;;;;;;;17.88;12.68;;;;;;;10.99;68.36;101530.72;5013047;28;20466;-71
2022/04/19 00:09:50;;;;;;;18.33;12.27;;;;;;;10.91;69.63;101534.91;5012717;28;20026;-71
2022/04/19 00:12:15;;;;;;;17.20;11.85;;;;;;;10.99;69.82;101530.72;4996111;28;20026;-71
2022/04/19 00:14:41;;;;;;;17.80;12.40;;;;;;;10.90;70.33;101527.84;5013370;28;20104;-71
2022/04/19 00:17:07;;;;;;;16.55;11.88;;;;;;;10.93;69.81;101534.09;5014029;28;20030;-71
2022/04/19 00:19:32;;;;;;;19.13;13.20;;;;;;;10.88;70.57;101529.53;4995813;28;20025;-71
2022/04/19 00:21:57;;;;;;;16.85;12.60;;;;;;;10.71;70.84;101537.88;5013314;28;20033;-71
2022/04/19 00:24:23;;;;;;;17.90;13.07;;;;;;;10.68;70.99;101534.28;5012441;28;20049;-72
2022/04/19 00:26:48;;;;;;;20.17;13.20;;;;;;;10.64;72.29;101535.94;5013761;28;20088;-71
2022/04/19 00:29:13;;;;;;;18.27;12.82;;;;;;;10.85;71.88;101532.09;5013253;28;20347;-71
2022/04/19 00:31:39;;;;;;;17.63;12.63;;;;;;;10.66;72.97;101536.84;4995065;28;20029;-71
2022/04/19 00:34:04;;;;;;;19.05;12.98;;;;;;;10.68;73.98;101531.66;5012060;28;20021;-71
2022/04/19 00:36:29;;;;;;;21.67;13.50;;;;;;;10.57;73.96;101532.25;5013452;28;20034;-71
2022/04/19 00:38:54;;;;;;;16.85;13.13;;;;;;;10.49;73.88;101522.38;5013742;28;20429;-72
2022/04/19 00:41:20;;;;;;;20.48;12.98;;;;;;;10.38;74.54;101530.84;5013742;28;20034;-72
2022/04/19 00:43:45;;;;;;;20.60;13.15;;;;;;;10.33;75.04;101524.53;5012478;28;20033;-71
2022/04/19 00:46:11;;;;;;;18.58;13.85;;;;;;;10.36;74.95;101521.13;4995740;28;20029;-71
2022/04/19 00:48:36;;;;;;;18.40;13.43;;;;;;;10.28;75.40;101518.22;5011903;28;20044;-71
2022/04/19 00:51:01;;;;;;;19.10;13.88;;;;;;;10.23;74.80;101515.47;5012904;28;20033;-71
2022/04/19 00:53:29;;;;;;;23.48;13.57;;;;;;;10.19;76.03;101513.59;5010000;28;20053;-72
2022/04/19 00:55:55;;;;;;;19.15;13.57;;;;;;;10.15;76.25;101508.19;4995550;28;20022;-71
2022/04/19 00:58:20;;;;;;;17.08;12.90;;;;;;;10.12;76.62;101511.66;5012872;28;20112;-72
2022/04/19 01:00:45;;;;;;;18.77;13.45;;;;;;;10.06;76.80;101507.09;5012051;28;20032;-72
2022/04/19 01:03:11;;;;;;;19.48;13.07;;;;;;;10.07;76.36;101508.00;4995057;28;20025;-71
2022/04/19 01:05:36;;;;;;;18.85;13.18;;;;;;;10.00;77.43;101512.19;5011658;28;20104;-71
2022/04/19 01:08:02;;;;;;;16.38;12.27;;;;;;;10.00;78.33;101509.56;5012140;28;20030;-71
2022/04/19 01:10:28;;;;;;;20.00;13.80;;;;;;;9.96;78.79;101510.31;5012742;28;20038;-72
2022/04/19 01:15:37;;;;;;;17.60;13.13;;;;;;;9.87;79.74;101499.50;5013093;28;20188;-72
2022/04/19 01:18:03;;;;;;;19.60;13.35;;;;;;;9.82;79.74;101506.34;5011540;28;20034;-72
2022/04/19 01:20:29;;;;;;;21.25;13.93;;;;;;;9.84;80.51;101507.31;5012944;28;20026;-72
2022/04/19 01:22:54;;;;;;;18.83;13.57;;;;;;;9.90;81.37;101502.22;5012152;28;20038;-71
2022/04/19 01:25:20;;;;;;;18.67;14.73;;;;;;;9.87;80.54;101496.88;5012604;28;20045;-72
2022/04/19 01:27:46;;;;;;;20.30;13.82;;;;;;;9.73;81.37;101492.09;5012101;28;20022;-72
2022/04/19 01:30:12;;;;;;;18.77;13.98;;;;;;;9.82;81.96;101499.38;5012595;28;20061;-72
2022/04/19 01:32:37;;;;;;;20.05;13.70;;;;;;;9.78;81.59;101500.16;5011006;28;20096;-72
2022/04/19 01:35:06;;;;;;;23.10;13.88;;;;;;;9.78;82.06;101506.28;5012420;28;20466;-72
2022/04/19 01:37:35;;;;;;;19.33;13.98;;;;;;;9.61;82.35;101502.22;5011767;28;20425;-72
2022/04/19 01:40:17;;;;;;;19.67;13.57;;;;;;;9.55;82.45;101505.56;5011816;28;20486;-72
2022/04/19 01:42:48;;;;;;;19.50;13.20;;;;;;;9.50;83.15;101501.91;5010128;28;20021;-72
2022/04/19 01:45:18;;;;;;;19.73;14.13;;;;;;;9.49;83.88;101496.59;5011151;28;20042;-72
2022/04/19 01:47:43;;;;;;;20.15;14.70;;;;;;;9.51;84.60;101494.91;5010567;28;20537;-72
2022/04/19 01:50:12;;;;;;;19.38;13.88;;;;;;;9.53;84.88;101495.84;5012591;28;20029;-72
2022/04/19 01:52:38;;;;;;;23.20;14.05;;;;;;;9.59;84.87;101494.31;5010458;28;20025;-72
2022/04/19 01:55:06;;;;;;;20.58;14.45;;;;;;;9.55;84.28;101502.03;5012345;28;20033;-72
2022/04/19 01:57:32;;;;;;;20.48;15.20;;;;;;;9.52;84.00;101494.06;5011619;28;20034;-72
2022/04/19 01:59:57;;;;;;;19.98;15.43;;;;;;;9.52;84.66;101491.44;5015741;28;20497;-72
2022/04/19 02:02:23;;;;;;;19.88;14.65;;;;;;;9.38;84.57;101493.63;5011420;28;20022;-72
2022/04/19 02:04:50;;;;;;;23.77;15.82;;;;;;;9.54;86.37;101495.03;5015755;28;20033;-72
2022/04/19 02:07:16;;;;;;;23.40;15.98;;;;;;;9.39;85.04;101483.16;5014983;28;20058;-72
2022/04/19 02:09:41;;;;;;;22.77;15.55;;;;;;;9.39;85.01;101487.53;4997745;28;20111;-72
2022/04/19 02:12:07;;;;;;;25.40;16.65;;;;;;;9.41;85.54;101486.75;5014807;28;20030;-72
2022/04/19 02:14:32;;;;;;;22.38;15.80;;;;;;;9.39;85.73;101483.16;4997596;28;20034;-72
2022/04/19 02:16:58;;;;;;;25.92;15.65;;;;;;;9.28;84.79;101487.19;5014008;28;20014;-72
2022/04/19 02:19:23;;;;;;;23.25;15.55;;;;;;;9.17;85.67;101488.56;5015571;28;20113;-72
2022/04/19 02:21:48;;;;;;;23.17;15.95;;;;;;;9.27;85.61;101477.53;5014635;28;20018;-71
2022/04/19 02:24:14;;;;;;;23.38;15.88;;;;;;;9.22;86.33;101481.72;5010781;28;20046;-72
2022/04/19 02:26:39;;;;;;;23.25;15.50;;;;;;;9.16;86.68;101484.19;4995489;28;20038;-72
2022/04/19 02:29:04;;;;;;;26.58;16.10;;;;;;;9.10;89.15;101484.84;4995560;28;20038;-72
2022/04/19 02:31:30;;;;;;;23.95;16.42;;;;;;;9.36;88.10;101483.09;4994257;28;20025;-72
2022/04/19 02:33:56;;;;;;;22.98;16.58;;;;;;;9.15;88.18;101483.28;4994494;28;20486;-71
2022/04/19 02:36:21;;;;;;;22.45;16.02;;;;;;;9.11;88.28;101484.94;4995582;28;20478;-72
2022/04/19 02:38:46;;;;;;;27.13;17.55;;;;;;;9.15;88.55;101482.38;4995037;28;20061;-72
2022/04/19 02:41:12;;;;;;;28.80;16.73;;;;;;;9.10;88.78;101477.88;4995212;28;20160;-71
2022/04/19 02:43:38;;;;;;;25.90;17.60;;;;;;;9.06;89.12;101481.25;4994275;28;20030;-71
2022/04/19 02:46:04;;;;;;;27.42;18.08;;;;;;;9.03;90.66;101482.88;4995161;28;20018;-72
2022/04/19 02:48:30;;;;;;;25.42;17.15;;;;;;;9.03;90.41;101482.88;4994014;28;20173;-72
2022/04/19 02:50:56;;;;;;;25.05;16.77;;;;;;;9.00;90.31;101481.03;5009567;28;20022;-71
2022/04/19 02:53:21;;;;;;;25.73;17.58;;;;;;;8.86;90.34;101477.06;4994118;28;20510;-71
2022/04/19 02:55:48;;;;;;;28.77;16.75;;;;;;;8.84;91.48;101483.97;4994674;28;20375;-71
2022/04/19 02:58:13;;;;;;;27.08;18.20;;;;;;;8.79;92.24;101481.22;4995137;28;20113;-72
2022/04/19 03:00:39;;;;;;;23.17;16.10;;;;;;;8.83;92.28;101484.81;4994114;28;20030;-72
2022/04/19 03:03:05;;;;;;;24.40;16.73;;;;;;;8.80;92.85;101476.84;4993801;28;20030;-72
2022/04/19 03:05:30;;;;;;;27.27;17.65;;;;;;;8.78;93.14;101474.19;4993807;28;20025;-72
2022/04/19 03:07:56;;;;;;;24.35;16.77;;;;;;;8.73;93.17;101474.00;4994725;28;20057;-71
2022/04/19 03:10:21;;;;;;;31.00;17.73;;;;;;;8.75;93.93;101485.47;4993189;28;20030;-72
2022/04/19 03:12:47;;;;;;;31.33;18.90;;;;;;;8.67;93.63;101476.44;4994783;28;20073;-71
2022/04/19 03:15:12;;;;;;;24.02;16.02;;;;;;;8.90;93.24;101478.97;4994871;28;20033;-72
2022/04/19 03:17:39;;;;;;;24.95;16.73;;;;;;;8.67;93.98;101471.19;4994758;28;20026;-72
2022/04/19 03:20:08;;;;;;;23.48;16.73;;;;;;;8.63;94.50;101473.63;4995174;28;20026;-71
2022/04/19 03:28:13;;;;;;;22.48;16.42;;;;;;;8.48;95.67;101484.47;5014234;28;20569;-71
2022/04/19 03:30:39;;;;;;;22.58;16.33;;;;;;;8.41;96.32;101481.63;5014283;28;20057;-71
2022/04/19 03:33:05;;;;;;;42.83;18.30;;;;;;;8.47;96.38;101480.09;4997404;28;20021;-72
2022/04/19 03:35:30;;;;;;;25.40;17.55;;;;;;;8.42;96.36;101475.56;5014366;28;20092;-72
2022/04/19 03:37:56;;;;;;;33.90;19.02;;;;;;;8.38;96.35;101475.38;5013847;28;20034;-71
2022/04/19 03:40:22;;;;;;;27.63;18.73;;;;;;;8.31;96.78;101471.63;5014609;28;20096;-71
2022/04/19 03:42:47;;;;;;;25.00;17.55;;;;;;;8.32;96.87;101475.16;5014217;28;20457;-71
2022/04/19 03:45:12;;;;;;;28.60;17.75;;;;;;;8.26;97.20;101474.09;5014356;28;20705;-72
2022/04/19 03:47:38;;;;;;;25.50;17.40;;;;;;;8.22;97.33;101473.91;5013177;28;20030;-72
2022/04/19 03:50:05;;;;;;;24.67;16.88;;;;;;;8.19;97.14;101471.19;5014033;28;20104;-72
2022/04/19 03:52:31;;;;;;;26.73;17.70;;;;;;;8.15;97.66;101466.69;5012559;28;20058;-72
2022/04/19 03:54:57;;;;;;;26.02;17.42;;;;;;;8.13;97.52;101468.38;5012353;28;20109;-72
2022/04/19 03:57:25;;;;;;;26.77;17.80;;;;;;;8.07;97.99;101467.28;5013697;28;20038;-72
2022/04/19 03:59:51;;;;;;;23.98;17.70;;;;;;;8.13;98.21;101471.00;4994840;28;20032;-72
2022/04/19 04:02:17;;;;;;;28.42;18.10;;;;;;;8.12;98.54;101474.44;5012545;28;20022;-71
2022/04/19 04:04:42;;;;;;;29.52;17.95;;;;;;;8.04;98.63;101477.66;5013882;28;20415;-71
2022/04/19 04:07:08;;;;;;;28.27;18.58;;;;;;;8.02;98.86;101479.34;5011454;28;20045;-71
2022/04/19 04:09:35;;;;;;;26.88;17.35;;;;;;;8.02;99.35;101483.69;5013659;28;20378;-72
2022/04/19 04:12:06;;;;;;;29.38;18.00;;;;;;;7.98;99.59;101485.28;5013009;28;20079;-72
2022/04/19 04:14:32;;;;;;;28.23;18.48;;;;;;;7.95;100.00;101479.94;5012986;28;20044;-72
2022/04/19 04:16:58;;;;;;;27.83;19.45;;;;;;;8.00;100.00;101472.25;5013318;28;20026;-72
2022/04/19 04:19:23;;;;;;;28.10;18.55;;;;;;;7.97;100.00;101474.75;5013232;28;20389;-72
2022/04/19 04:21:48;;;;;;;28.17;19.05;;;;;;;7.89;100.00;101479.69;4986098;28;20100;-72
2022/04/19 04:24:14;;;;;;;30.17;19.65;;;;;;;7.82;100.00;101475.06;5013199;28;20050;-72
2022/04/19 04:26:39;;;;;;;30.98;19.52;;;;;;;7.84;100.00;101471.69;5012680;28;20109;-71
2022/04/19 04:29:05;;;;;;;26.73;18.23;;;;;;;7.88;100.00;101478.81;5012742;28;20398;-72
2022/04/19 04:31:31;;;;;;;29.48;19.33;;;;;;;7.89;100.00;101479.69;5012929;28;20061;-72
2022/04/19 04:33:57;;;;;;;27.02;18.60;;;;;;;7.93;100.00;101484.22;4995468;28;20076;-72
2022/04/19 04:36:23;;;;;;;31.83;19.13;;;;;;;7.82;100.00;101481.19;5011608;28;20390;-72
2022/04/19 04:38:48;;;;;;;29.50;19.33;;;;;;;7.81;100.00;101486.38;5012765;28;20032;-72
2022/04/19 04:41:13;;;;;;;28.77;19.55;;;;;;;7.80;100.00;101481.97;4994853;28;20025;-71
2022/04/19 04:43:40;;;;;;;28.83;19.25;;;;;;;7.80;100.00;101487.22;5012977;28;20026;-72
2022/04/19 04:51:33;;;;;;;30.63;18.85;;;;;;;7.76;100.00;101492.34;5007418;28;20075;-72
2022/04/19 04:53:59;;;;;;;32.47;18.73;;;;;;;7.81;100.00;101489.88;5012372;28;20424;-72
2022/04/19 04:56:24;;;;;;;29.13;20.08;;;;;;;7.79;100.00;101491.56;5011294;28;20030;-72
2022/04/19 04:58:50;;;;;;;29.05;19.92;;;;;;;7.80;100.00;101492.44;5012010;28;20053;-71
2022/04/19 05:01:15;;;;;;;28.50;19.90;;;;;;;7.82;100.00;101490.78;5011640;28;20038;-71
2022/04/19 05:03:41;;;;;;;30.17;20.45;;;;;;;7.85;100.00;101496.16;5012779;28;20022;-70
2022/04/19 05:06:06;;;;;;;29.77;19.05;;;;;;;7.87;100.00;101495.38;5011653;28;20109;-72
2022/04/19 05:08:32;;;;;;;32.70;20.25;;;;;;;7.93;100.00;101500.84;5008745;28;20022;-72
2022/04/19 05:10:57;;;;;;;29.33;20.50;;;;;;;7.92;100.00;101495.53;4992914;28;20065;-71
2022/04/19 05:13:23;;;;;;;29.20;20.20;;;;;;;7.94;100.00;101499.13;5010029;28;20022;-71
2022/04/19 05:15:48;;;;;;;31.75;21.30;;;;;;;7.97;100.00;101501.84;5010007;28;20097;-71
2022/04/19 05:18:14;;;;;;;32.10;21.48;;;;;;;8.00;100.00;101501.94;5007778;28;20116;-71
2022/04/19 05:20:40;;;;;;;33.63;21.90;;;;;;;8.01;100.00;101497.63;5007934;28;20407;-71
2022/04/19 05:23:06;;;;;;;32.45;21.17;;;;;;;8.10;100.00;101503.22;5010508;28;20478;-71
2022/04/19 05:25:31;;;;;;;32.03;20.90;;;;;;;8.13;100.00;101502.44;5008333;28;20025;-72
2022/04/19 05:27:57;;;;;;;32.08;22.05;;;;;;;8.18;100.00;101500.84;5011398;28;20029;-72
2022/04/19 05:30:22;;;;;;;37.33;21.52;;;;;;;8.22;100.00;101500.13;4993977;28;20036;-71
2022/04/19 05:32:47;;;;;;;36.28;21.05;;;;;;;8.28;100.00;101503.00;5010403;28;20006;-72
2022/04/19 05:35:12;;;;;;;41.28;21.67;;;;;;;8.36;100.00;101505.91;5015878;28;20104;-72
2022/04/19 05:37:38;;;;;;;33.58;22.90;;;;;;;8.40;100.00;101500.81;5011587;28;20359;-71
2022/04/19 05:40:04;;;;;;;31.80;21.77;;;;;;;8.47;100.00;101501.09;5014083;28;20037;-73
2022/04/19 05:42:30;;;;;;;31.35;21.92;;;;;;;8.51;100.00;101505.59;5015869;28;20496;-72
2022/04/19 05:44:55;;;;;;;31.60;21.33;;;;;;;8.53;100.00;101512.69;5015903;28;20072;-71
2022/04/19 05:47:21;;;;;;;35.42;22.67;;;;;;;8.55;100.00;101504.88;4996727;28;20419;-70
2022/04/19 05:49:46;;;;;;;34.67;23.60;;;;;;;8.62;100.00;101509.47;5015102;28;20052;-70
2022/04/19 05:52:11;;;;;;;36.50;22.40;;;;;;;8.66;100.00;101511.38;5012431;28;20026;-72
2022/04/19 05:54:36;;;;;;;35.05;24.00;;;;;;;8.73;100.00;101513.38;5014369;28;20105;-72
2022/04/19 05:57:02;;;;;;;35.45;22.35;;;;;;;8.83;100.00;101517.22;5014908;28;20053;-70
2022/04/19 05:59:27;;;;;;;29.95;22.17;;;;;;;8.91;100.00;101512.22;4995707;28;20482;-70
2022/04/19 06:04:56;;;;;;;30.58;22.58;;;;;;;9.14;100.00;101519.97;5011043;28;20049;-71
2022/04/19 06:07:29;;;;;;;28.58;20.90;;;;;;;9.21;100.00;101517.63;5012865;28;20152;-71
2022/04/19 06:09:55;;;;;;;31.05;20.95;;;;;;;9.27;100.00;101523.06;5013697;28;20021;-72
2022/04/19 06:12:20;;;;;;;30.13;21.05;;;;;;;9.28;100.00;101522.22;5013258;28;20025;-70
2022/04/19 06:14:45;;;;;;;28.88;19.13;;;;;;;9.32;100.00;101525.84;5009285;28;20026;-72
2022/04/19 06:17:16;;;;;;;29.95;20.27;;;;;;;9.39;100.00;101527.81;5007722;28;20105;-72
2022/04/19 06:19:42;;;;;;;26.77;20.17;;;;;;;9.50;100.00;101530.81;5009914;28;20069;-73
2022/04/19 06:22:08;;;;;;;33.00;19.17;;;;;;;9.54;100.00;101526.53;5012232;28;20038;-72
2022/04/19 06:24:34;;;;;;;25.83;18.20;;;;;;;9.51;100.00;101524.72;5016724;28;20068;-72
2022/04/19 06:26:59;;;;;;;28.08;17.95;;;;;;;9.63;100.00;101521.59;5014292;28;20026;-71
2022/04/19 06:29:24;;;;;;;23.15;17.58;;;;;;;9.75;100.00;101521.97;4997561;28;20343;-71
2022/04/19 06:31:49;;;;;;;23.73;16.95;;;;;;;9.87;100.00;101517.91;5012981;28;20034;-71
2022/04/19 06:34:16;;;;;;;27.30;16.88;;;;;;;9.98;100.00;101524.38;5014388;28;20025;-71
2022/04/19 06:36:42;;;;;;;22.50;15.63;;;;;;;10.02;97.44;101518.38;5014200;28;20026;-71
2022/04/19 06:39:08;;;;;;;23.27;16.55;;;;;;;10.12;97.43;101519.56;5014705;28;20033;-70
2022/04/19 06:41:33;;;;;;;21.63;15.52;;;;;;;10.20;96.09;101531.19;5013781;28;20022;-71
2022/04/19 06:43:59;;;;;;;22.90;15.68;;;;;;;10.28;96.14;101523.50;4994053;28;20092;-73
2022/04/19 06:46:25;;;;;;;19.65;14.85;;;;;;;10.34;95.95;101528.06;4994226;28;20029;-73
2022/04/19 06:48:53;;;;;;;20.40;14.73;;;;;;;10.37;94.00;101526.41;5012899;28;20527;-73
2022/04/19 06:51:20;;;;;;;20.77;14.00;;;;;;;10.47;92.79;101527.56;5010073;28;20496;-73
2022/04/19 06:53:45;;;;;;;19.45;13.82;;;;;;;10.57;90.92;101528.75;5013908;28;20030;-73
2022/04/19 06:56:10;;;;;;;21.10;14.55;;;;;;;10.66;88.81;101531.59;5014066;28;20406;-72
2022/04/19 06:58:36;;;;;;;16.35;13.18;;;;;;;10.75;89.52;101537.13;5014412;28;20482;-72
2022/04/19 07:01:01;;;;;;;21.73;14.10;;;;;;;10.80;90.87;101530.25;5014223;28;20042;-72
2022/04/19 07:03:27;;;;;;;20.17;14.18;;;;;;;10.91;91.57;101545.44;5014664;28;20444;-73
2022/04/19 07:05:52;;;;;;;17.80;14.02;;;;;;;11.01;89.35;101544.81;5014368;28;20140;-73
2022/04/19 07:08:17;;;;;;;16.55;12.70;;;;;;;11.07;87.96;101537.09;5014198;28;20017;-73
2022/04/19 07:10:43;;;;;;;16.70;12.10;;;;;;;11.18;88.67;101546.97;5013407;28;20478;-73
2022/04/19 07:13:09;;;;;;;16.63;12.35;;;;;;;11.29;87.55;101545.53;4995194;28;20034;-72
2022/04/19 07:15:35;;;;;;;20.50;13.32;;;;;;;11.40;85.38;101538.78;5014278;28;20066;-73
2022/04/19 07:18:00;;;;;;;19.08;11.90;;;;;;;11.57;84.95;101541.81;4996685;28;20033;-73
2022/04/19 07:28:54;;;;;;;17.65;10.65;;;;;;;12.23;79.64;101539.78;4951506;29;20122;-72
2022/04/19 07:31:19;;;;;;;18.17;11.38;;;;;;;12.36;77.80;101543.56;4983851;28;20132;-73
2022/04/19 07:33:45;;;;;;;16.33;11.10;;;;;;;12.45;76.31;101541.13;5015517;28;20387;-73
2022/04/19 07:36:11;;;;;;;18.13;11.23;;;;;;;12.52;75.48;101541.25;5012948;28;20080;-73
2022/04/19 07:38:36;;;;;;;17.55;11.15;;;;;;;12.65;73.77;101540.63;4994954;28;20038;-73
2022/04/19 07:41:03;;;;;;;16.80;11.60;;;;;;;12.75;72.69;101539.03;5012236;28;20033;-73
2022/04/19 07:43:29;;;;;;;14.50;10.50;;;;;;;12.86;68.98;101536.59;5008934;28;20076;-73
2022/04/19 07:45:54;;;;;;;17.95;10.50;;;;;;;12.99;68.76;101535.97;5011399;28;20034;-73
2022/04/19 07:48:20;;;;;;;14.93;10.23;;;;;;;13.14;66.04;101538.88;5011222;28;20037;-74
2022/04/19 07:50:46;;;;;;;15.95;10.88;;;;;;;13.24;65.17;101537.28;5013726;28;20394;-74
2022/04/19 07:53:11;;;;;;;14.55;10.27;;;;;;;13.34;63.82;101535.66;5013919;28;20057;-73
2022/04/19 07:55:37;;;;;;;13.55;10.52;;;;;;;13.40;63.46;101529.63;5011155;28;20436;-74
2022/04/19 07:58:02;;;;;;;17.95;9.70;;;;;;;13.49;61.96;101525.38;5008881;28;20104;-73
2022/04/19 08:00:28;;;;;;;13.07;9.73;;;;;;;13.60;62.58;101535.22;4992115;28;20076;-73
2022/04/19 08:02:57;;;;;;;14.52;10.38;;;;;;;13.70;62.41;101537.16;5010327;28;20073;-73
2022/04/19 08:05:24;;;;;;;12.23;8.82;;;;;;;13.77;61.09;101535.50;5009847;28;20045;-74
2022/04/19 08:07:50;;;;;;;16.13;9.95;;;;;;;13.86;61.91;101540.88;4995043;28;20034;-74
2022/04/19 08:10:17;;;;;;;13.65;7.68;;;;;;;13.99;60.11;101540.19;5010692;28;20045;-74
2022/04/19 08:12:43;;;;;;;14.85;9.10;;;;;;;14.11;59.96;101541.25;5012552;28;20087;-73
2022/04/19 08:15:09;;;;;;;16.67;9.50;;;;;;;14.22;59.81;101539.63;4994271;28;20021;-74
2022/04/19 08:17:36;;;;;;;12.80;8.10;;;;;;;14.35;58.13;101538.00;5010167;28;20396;-74
2022/04/19 08:20:02;;;;;;;13.02;8.13;;;;;;;14.50;57.96;101546.16;5011289;28;20104;-73
2022/04/19 08:22:28;;;;;;;14.75;9.10;;;;;;;14.66;59.29;101543.69;4994179;28;20050;-73
2022/04/19 08:24:53;;;;;;;12.70;6.95;;;;;;;14.81;58.56;101535.91;4995483;28;20057;-73
2022/04/19 08:27:19;;;;;;;14.90;7.78;;;;;;;14.97;56.24;101541.34;5010471;28;20104;-73
2022/04/19 08:29:46;;;;;;;10.48;6.70;;;;;;;15.07;53.35;101537.03;5012976;28;20410;-74
2022/04/19 08:32:12;;;;;;;10.80;6.97;;;;;;;15.23;53.94;101535.41;4990431;28;20061;-74
2022/04/19 08:34:38;;;;;;;12.73;6.65;;;;;;;15.34;55.54;101541.66;5011068;28;20147;-75
2022/04/19 08:37:04;;;;;;;12.10;6.57;;;;;;;15.45;53.67;101537.38;5013093;28;20115;-73
2022/04/19 08:39:29;;;;;;;10.35;5.65;;;;;;;15.54;51.22;101533.88;5001978;28;20144;-73
2022/04/19 08:41:55;;;;;;;9.48;5.68;;;;;;;15.62;51.26;101531.28;5010059;28;20381;-73
2022/04/19 08:44:20;;;;;;;9.57;6.13;;;;;;;15.64;50.61;101540.13;5012709;28;20390;-73
2022/04/19 08:46:46;;;;;;;6.72;4.80;;;;;;;15.78;49.97;101537.59;5010464;28;20037;-74
2022/04/19 08:49:12;;;;;;;8.00;5.18;;;;;;;15.83;48.66;101534.09;5013091;28;20417;-73
2022/04/19 08:51:39;;;;;;;10.50;4.93;;;;;;;15.90;49.00;101537.69;5011345;28;20517;-74
2022/04/19 08:59:34;;;;;;;9.07;6.10;;;;;;;16.14;50.44;101536.94;5011467;28;20461;-73
2022/04/19 09:01:59;;;;;;;10.50;5.47;;;;;;;16.14;47.77;101534.28;5010680;28;20014;-74
2022/04/19 09:04:26;;;;;;;7.57;5.22;;;;;;;16.28;48.95;101538.75;5012142;28;20465;-74
2022/04/19 09:06:54;;;;;;;8.48;4.97;;;;;;;16.40;47.88;101535.25;5012555;28;20386;-74
2022/04/19 09:09:23;;;;;;;8.60;5.65;;;;;;;16.51;46.61;101531.75;5016448;28;20026;-74
2022/04/19 09:11:54;;;;;;;13.93;4.97;;;;;;;16.61;45.44;101530.00;5015642;28;20390;-73
2022/04/19 09:14:22;;;;;;;9.05;5.45;;;;;;;16.69;47.52;101524.72;5014294;28;20041;-74
2022/04/19 09:16:47;;;;;;;8.80;6.00;;;;;;;16.93;47.93;101528.31;5016245;28;20021;-74
2022/04/19 09:19:31;;;;;;;8.20;6.20;;;;;;;17.19;48.74;101529.22;4998124;28;20036;-73
2022/04/19 09:21:57;;;;;;;10.38;6.30;;;;;;;17.22;48.82;101530.13;5013791;28;20022;-73
2022/04/19 09:24:23;;;;;;;7.68;5.50;;;;;;;17.29;51.70;101537.22;5015886;28;20037;-74
2022/04/19 09:26:49;;;;;;;10.25;5.90;;;;;;;17.44;47.84;101531.88;4998514;28;20390;-76
2022/04/19 09:29:21;;;;;;;8.60;5.75;;;;;;;17.57;47.66;101529.22;5014512;28;20032;-74
2022/04/19 09:32:01;;;;;;;8.35;5.60;;;;;;;17.66;46.93;101526.53;5016483;28;20025;-75
2022/04/19 09:34:33;;;;;;;8.05;5.15;;;;;;;18.08;45.32;101524.69;5016316;28;20034;-74
2022/04/19 09:37:10;;;;;;;7.32;5.13;;;;;;;17.95;45.12;101517.63;4998587;28;20026;-73
2022/04/19 09:39:37;;;;;;;8.63;5.50;;;;;;;18.10;45.36;101517.56;5013237;28;20109;-73
2022/04/19 09:42:13;;;;;;;9.63;5.63;;;;;;;18.17;44.85;101508.63;5011942;28;20037;-73
2022/04/19 09:44:44;;;;;;;7.65;5.13;;;;;;;18.25;42.86;101515.75;5016179;28;20481;-73
2022/04/19 09:47:13;;;;;;;8.90;5.57;;;;;;;18.40;46.79;101517.44;5011557;28;20471;-73
2022/04/19 09:49:49;;;;;;;9.13;5.35;;;;;;;18.46;44.12;101515.63;5016043;28;20389;-73
2022/04/19 09:52:38;;;;;;;9.05;5.32;;;;;;;18.60;42.23;101509.31;5015442;28;20036;-73
2022/04/19 09:55:10;;;;;;;9.10;5.32;;;;;;;18.60;41.70;101506.63;5015602;28;20034;-74
2022/04/19 09:57:38;;;;;;;9.90;5.25;;;;;;;18.70;44.78;101506.56;5014648;28;20048;-74
2022/04/19 10:00:12;;;;;;;9.70;5.57;;;;;;;18.98;39.83;101508.22;5014981;28;20486;-74
2022/04/19 10:08:21;;;;;;;14.23;5.82;;;;;;;19.45;39.76;101506.91;5012567;28;20210;-72
2022/04/19 10:10:52;;;;;;;10.02;5.57;;;;;;;19.62;38.53;101497.84;5006850;28;20033;-71
2022/04/19 10:13:23;;;;;;;9.00;5.57;;;;;;;19.74;37.99;101497.72;5015697;28;20029;-72
2022/04/19 10:15:49;;;;;;;9.15;5.88;;;;;;;19.77;37.15;101489.66;5013704;28;20026;-72
2022/04/19 10:18:15;;;;;;;14.02;6.13;;;;;;;19.71;35.33;101482.59;5014327;28;20076;-73
2022/04/19 10:20:58;;;;;;;15.98;6.05;;;;;;;19.87;34.41;101485.13;5012461;28;20017;-72
2022/04/19 10:23:40;;;;;;;8.93;5.45;;;;;;;19.95;34.64;101472.56;5012796;28;20129;-73
2022/04/19 10:26:19;;;;;;;10.18;5.68;;;;;;;20.04;37.28;101487.59;5010916;28;20052;-72
2022/04/19 10:28:46;;;;;;;14.25;6.45;;;;;;;20.26;36.72;101492.66;4997025;28;20036;-73
2022/04/19 10:31:12;;;;;;;10.88;6.72;;;;;;;20.30;33.66;101486.38;5015548;28;20030;-72
2022/04/19 10:33:50;;;;;;;8.38;6.15;;;;;;;20.69;34.65;101494.78;5015282;28;20064;-73
2022/04/19 10:36:37;;;;;;;9.88;6.43;;;;;;;20.43;32.74;101474.63;4996502;28;20096;-73
2022/04/19 10:39:12;;;;;;;11.68;6.72;;;;;;;20.61;35.48;101489.50;4996146;28;20549;-74
2022/04/19 10:42:05;;;;;;;7.55;5.70;;;;;;;20.67;35.25;101489.41;5011147;28;20034;-74
2022/04/19 10:44:49;;;;;;;9.02;6.10;;;;;;;20.82;35.39;101495.44;4992212;28;20482;-74
2022/04/19 10:47:17;;;;;;;9.85;6.00;;;;;;;20.77;38.51;101498.22;5012598;28;20026;-75
2022/04/19 10:49:59;;;;;;;8.80;5.80;;;;;;;20.88;35.51;101488.22;5013468;28;20034;-74
2022/04/19 10:52:39;;;;;;;8.40;6.32;;;;;;;21.40;33.98;101488.22;5014916;28;20466;-74
2022/04/19 10:55:10;;;;;;;13.70;6.95;;;;;;;21.60;33.12;101487.03;4997277;28;20940;-74
2022/04/19 11:00:27;;;;;;;9.50;6.40;;;;;;;21.79;32.94;101488.41;5013111;28;20052;-74
2022/04/19 11:03:06;;;;;;;10.43;6.75;;;;;;;21.82;33.80;101485.66;5013496;28;20072;-74
2022/04/19 11:05:45;;;;;;;10.07;6.82;;;;;;;21.68;32.89;101479.72;5012900;28;20104;-75
2022/04/19 11:08:22;;;;;;;9.88;6.65;;;;;;;22.03;34.28;101487.03;5001792;28;20121;-75
2022/04/19 11:10:49;;;;;;;9.13;6.35;;;;;;;22.43;33.64;101488.00;5012767;28;20112;-75
2022/04/19 11:13:15;;;;;;;10.88;7.00;;;;;;;22.41;32.81;101481.78;5013055;28;20076;-73
2022/04/19 11:15:42;;;;;;;11.82;6.68;;;;;;;22.17;33.61;101484.06;5009476;28;20409;-73
2022/04/19 11:18:24;;;;;;;10.48;6.95;;;;;;;22.27;33.47;101484.72;4994293;28;20092;-73
2022/04/19 11:20:50;;;;;;;16.15;7.53;;;;;;;22.66;33.73;101490.13;5012143;28;20112;-73
2022/04/19 11:23:18;;;;;;;32.47;7.95;;;;;;;22.58;30.48;101480.53;5013015;28;20053;-73
2022/04/19 11:25:45;;;;;;;11.57;6.70;;;;;;;22.22;32.56;101482.16;5013055;28;20143;-73
2022/04/19 11:28:11;;;;;;;12.40;6.88;;;;;;;22.67;32.14;101488.34;5012563;28;20040;-73
2022/04/19 11:30:42;;;;;;;10.20;7.38;;;;;;;22.92;31.19;101479.69;5013010;28;20030;-73
2022/04/19 11:33:08;;;;;;;10.40;7.35;;;;;;;22.73;31.49;101485.50;5014039;28;20033;-73
2022/04/19 11:35:34;;;;;;;11.02;6.55;;;;;;;22.48;30.27;101472.69;5011964;28;20437;-73
2022/04/19 11:38:10;;;;;;;14.35;6.60;;;;;;;22.80;30.68;101480.88;5014163;28;20604;-73
2022/04/19 11:49:03;;;;;;;9.18;6.10;;;;;;;23.87;27.94;101462.84;5012245;28;20037;-73
2022/04/19 11:51:30;;;;;;;12.18;5.75;;;;;;;23.42;29.87;101465.91;5012427;28;20061;-72
2022/04/19 11:53:55;;;;;;;9.48;6.47;;;;;;;22.94;28.89;101459.06;5011140;28;20470;-72
2022/04/19 11:56:21;;;;;;;12.10;6.45;;;;;;;23.53;27.77;101463.81;5011379;28;20084;-72
2022/04/19 11:58:50;;;;;;;9.52;6.78;;;;;;;23.99;27.02;101451.75;5012046;28;20367;-72
2022/04/19 12:01:16;;;;;;;11.73;5.60;;;;;;;23.85;27.21;101453.97;5012240;28;20038;-72